sensor_id;sensor_type;location;lat;lon;timestamp;temperature;humidity
15217;DHT22;7711;46.634;14.318;2022-12-17T00:01:19;0.30;1.00
15217;DHT22;7711;46.634;14.318;2022-12-17T00:04:04;0.30;1.00
15217;DHT22;7711;46.634;14.318;2022-12-17T00:06:48;0.30;1.00
15217;DHT22;7711;46.634;14.318;2022-12-17T00:09:32;0.30;1.00
15217;DHT22;7711;46.634;14.318;2022-12-17T00:12:17;0.40;1.00
15217;DHT22;7711;46.634;14.318;2022-12-17T00:15:04;0.40;1.00
15217;DHT22;7711;46.634;14.318;2022-12-17T00:17:49;0.40;1.00
15217;DHT22;7711;46.634;14.318;2022-12-17T00:20:33;0.40;1.00
15217;DHT22;7711;46.634;14.318;2022-12-17T00:23:18;0.40;1.00
15217;DHT22;7711;46.634;14.318;2022-12-17T00:26:02;0.40;1.00
15217;DHT22;7711;46.634;14.318;2022-12-17T00:28:47;0.40;1.00
15217;DHT22;7711;46.634;14.318;2022-12-17T00:31:38;0.40;1.00
15217;DHT22;7711;46.634;14.318;2022-12-17T00:34:22;0.50;1.00
15217;DHT22;7711;46.634;14.318;2022-12-17T00:37:06;0.50;1.00
15217;DHT22;7711;46.634;14.318;2022-12-17T00:39:53;0.50;1.00
15217;DHT22;7711;46.634;14.318;2022-12-17T00:42:38;0.50;1.00
15217;DHT22;7711;46.634;14.318;2022-12-17T00:45:22;0.50;1.00
15217;DHT22;7711;46.634;14.318;2022-12-17T00:48:08;0.50;1.00
15217;DHT22;7711;46.634;14.318;2022-12-17T00:50:54;0.50;1.00
15217;DHT22;7711;46.634;14.318;2022-12-17T00:53:47;0.50;1.00
15217;DHT22;7711;46.634;14.318;2022-12-17T00:56:31;0.50;1.00
15217;DHT22;7711;46.634;14.318;2022-12-17T00:59:16;0.50;1.00
15217;DHT22;7711;46.634;14.318;2022-12-17T01:02:00;0.50;1.00
15217;DHT22;7711;46.634;14.318;2022-12-17T01:04:46;0.50;1.00
15217;DHT22;7711;46.634;14.318;2022-12-17T01:07:31;0.50;1.00
15217;DHT22;7711;46.634;14.318;2022-12-17T01:10:15;0.50;1.00
15217;DHT22;7711;46.634;14.318;2022-12-17T01:13:00;0.50;1.00
15217;DHT22;7711;46.634;14.318;2022-12-17T01:15:44;0.50;1.00
15217;DHT22;7711;46.634;14.318;2022-12-17T01:18:29;0.40;1.00
15217;DHT22;7711;46.634;14.318;2022-12-17T01:21:15;0.50;1.00
15217;DHT22;7711;46.634;14.318;2022-12-17T01:23:59;0.40;1.00
15217;DHT22;7711;46.634;14.318;2022-12-17T01:26:45;0.40;1.00
15217;DHT22;7711;46.634;14.318;2022-12-17T01:29:29;0.50;1.00
15217;DHT22;7711;46.634;14.318;2022-12-17T01:32:14;0.40;1.00
15217;DHT22;7711;46.634;14.318;2022-12-17T01:35:13;0.40;1.00
15217;DHT22;7711;46.634;14.318;2022-12-17T01:37:59;0.40;1.00
15217;DHT22;7711;46.634;14.318;2022-12-17T01:40:43;0.40;1.00
15217;DHT22;7711;46.634;14.318;2022-12-17T01:43:36;0.40;1.00
15217;DHT22;7711;46.634;14.318;2022-12-17T01:46:21;0.40;1.00
15217;DHT22;7711;46.634;14.318;2022-12-17T01:49:06;0.50;1.00
15217;DHT22;7711;46.634;14.318;2022-12-17T01:51:52;0.40;1.00
15217;DHT22;7711;46.634;14.318;2022-12-17T01:54:38;0.40;1.00
15217;DHT22;7711;46.634;14.318;2022-12-17T01:57:24;0.40;1.00
15217;DHT22;7711;46.634;14.318;2022-12-17T02:00:11;0.40;1.00
15217;DHT22;7711;46.634;14.318;2022-12-17T02:02:57;0.40;1.00
15217;DHT22;7711;46.634;14.318;2022-12-17T02:05:48;0.40;1.00
15217;DHT22;7711;46.634;14.318;2022-12-17T02:08:40;0.40;1.00
15217;DHT22;7711;46.634;14.318;2022-12-17T02:11:32;0.40;1.00
15217;DHT22;7711;46.634;14.318;2022-12-17T02:14:24;0.50;1.00
15217;DHT22;7711;46.634;14.318;2022-12-17T02:17:25;0.40;1.00
15217;DHT22;7711;46.634;14.318;2022-12-17T02:20:20;0.40;1.00
15217;DHT22;7711;46.634;14.318;2022-12-17T02:23:14;0.40;1.00
15217;DHT22;7711;46.634;14.318;2022-12-17T02:26:07;0.30;1.00
15217;DHT22;7711;46.634;14.318;2022-12-17T02:28:55;0.30;1.00
15217;DHT22;7711;46.634;14.318;2022-12-17T02:31:43;0.40;1.00
15217;DHT22;7711;46.634;14.318;2022-12-17T02:34:28;0.40;1.00
15217;DHT22;7711;46.634;14.318;2022-12-17T02:37:12;0.40;1.00
15217;DHT22;7711;46.634;14.318;2022-12-17T02:39:59;0.40;1.00
15217;DHT22;7711;46.634;14.318;2022-12-17T02:42:44;0.30;1.00
15217;DHT22;7711;46.634;14.318;2022-12-17T02:45:36;0.30;1.00
15217;DHT22;7711;46.634;14.318;2022-12-17T02:48:21;0.30;1.00
15217;DHT22;7711;46.634;14.318;2022-12-17T02:51:07;0.30;1.00
15217;DHT22;7711;46.634;14.318;2022-12-17T02:53:52;0.30;1.00
15217;DHT22;7711;46.634;14.318;2022-12-17T02:56:37;0.30;1.00
15217;DHT22;7711;46.634;14.318;2022-12-17T02:59:18;0.30;1.00
15217;DHT22;7711;46.634;14.318;2022-12-17T03:02:05;0.30;1.00
15217;DHT22;7711;46.634;14.318;2022-12-17T03:04:49;0.30;1.00
15217;DHT22;7711;46.634;14.318;2022-12-17T03:07:35;0.30;1.00
15217;DHT22;7711;46.634;14.318;2022-12-17T03:10:20;0.30;1.00
15217;DHT22;7711;46.634;14.318;2022-12-17T03:13:04;0.30;1.00
15217;DHT22;7711;46.634;14.318;2022-12-17T03:15:49;0.30;1.00
15217;DHT22;7711;46.634;14.318;2022-12-17T03:18:35;0.40;1.00
15217;DHT22;7711;46.634;14.318;2022-12-17T03:21:20;0.40;1.00
15217;DHT22;7711;46.634;14.318;2022-12-17T03:24:05;0.40;1.00
15217;DHT22;7711;46.634;14.318;2022-12-17T03:26:49;0.40;1.00
15217;DHT22;7711;46.634;14.318;2022-12-17T03:29:33;0.40;1.00
15217;DHT22;7711;46.634;14.318;2022-12-17T03:32:18;0.40;1.00
15217;DHT22;7711;46.634;14.318;2022-12-17T03:35:05;0.40;1.00
15217;DHT22;7711;46.634;14.318;2022-12-17T03:37:54;0.40;1.00
15217;DHT22;7711;46.634;14.318;2022-12-17T03:40:38;0.30;1.00
15217;DHT22;7711;46.634;14.318;2022-12-17T03:43:23;0.30;1.00
15217;DHT22;7711;46.634;14.318;2022-12-17T03:46:08;0.30;1.00
15217;DHT22;7711;46.634;14.318;2022-12-17T03:48:52;0.30;1.00
15217;DHT22;7711;46.634;14.318;2022-12-17T03:51:38;0.30;1.00
15217;DHT22;7711;46.634;14.318;2022-12-17T03:54:22;0.30;1.00
15217;DHT22;7711;46.634;14.318;2022-12-17T03:57:07;0.30;1.00
15217;DHT22;7711;46.634;14.318;2022-12-17T03:59:52;0.40;1.00
15217;DHT22;7711;46.634;14.318;2022-12-17T04:02:36;0.40;1.00
15217;DHT22;7711;46.634;14.318;2022-12-17T04:05:21;0.40;1.00
15217;DHT22;7711;46.634;14.318;2022-12-17T04:08:07;0.40;1.00
15217;DHT22;7711;46.634;14.318;2022-12-17T04:10:51;0.40;1.00
15217;DHT22;7711;46.634;14.318;2022-12-17T04:13:36;0.40;1.00
15217;DHT22;7711;46.634;14.318;2022-12-17T04:16:21;0.40;1.00
15217;DHT22;7711;46.634;14.318;2022-12-17T04:19:07;0.40;1.00
15217;DHT22;7711;46.634;14.318;2022-12-17T04:21:51;0.40;1.00
15217;DHT22;7711;46.634;14.318;2022-12-17T04:24:37;0.50;1.00
15217;DHT22;7711;46.634;14.318;2022-12-17T04:27:22;0.40;1.00
15217;DHT22;7711;46.634;14.318;2022-12-17T04:30:07;0.40;1.00
15217;DHT22;7711;46.634;14.318;2022-12-17T04:32:52;0.40;1.00
15217;DHT22;7711;46.634;14.318;2022-12-17T04:35:37;0.40;1.00
15217;DHT22;7711;46.634;14.318;2022-12-17T04:38:21;0.40;1.00
15217;DHT22;7711;46.634;14.318;2022-12-17T04:41:07;0.50;1.00
15217;DHT22;7711;46.634;14.318;2022-12-17T04:44:00;0.40;1.00
15217;DHT22;7711;46.634;14.318;2022-12-17T04:46:45;0.40;1.00
15217;DHT22;7711;46.634;14.318;2022-12-17T04:49:28;0.40;1.00
15217;DHT22;7711;46.634;14.318;2022-12-17T04:52:18;0.40;1.00
15217;DHT22;7711;46.634;14.318;2022-12-17T04:55:03;0.40;1.00
15217;DHT22;7711;46.634;14.318;2022-12-17T04:57:49;0.40;1.00
15217;DHT22;7711;46.634;14.318;2022-12-17T05:00:39;0.40;1.00
15217;DHT22;7711;46.634;14.318;2022-12-17T05:03:24;0.40;1.00
15217;DHT22;7711;46.634;14.318;2022-12-17T05:06:09;0.40;1.00
15217;DHT22;7711;46.634;14.318;2022-12-17T05:08:53;0.40;1.00
15217;DHT22;7711;46.634;14.318;2022-12-17T05:11:38;0.40;1.00
15217;DHT22;7711;46.634;14.318;2022-12-17T05:14:26;0.40;1.00
15217;DHT22;7711;46.634;14.318;2022-12-17T05:17:11;0.40;1.00
15217;DHT22;7711;46.634;14.318;2022-12-17T05:20:01;0.50;1.00
15217;DHT22;7711;46.634;14.318;2022-12-17T05:22:45;0.40;1.00
15217;DHT22;7711;46.634;14.318;2022-12-17T05:25:29;0.40;1.00
15217;DHT22;7711;46.634;14.318;2022-12-17T05:28:10;0.40;1.00
15217;DHT22;7711;46.634;14.318;2022-12-17T05:30:56;0.40;1.00
15217;DHT22;7711;46.634;14.318;2022-12-17T05:33:40;0.40;1.00
15217;DHT22;7711;46.634;14.318;2022-12-17T05:36:25;0.40;1.00
15217;DHT22;7711;46.634;14.318;2022-12-17T05:39:10;0.40;1.00
15217;DHT22;7711;46.634;14.318;2022-12-17T05:41:54;0.40;1.00
15217;DHT22;7711;46.634;14.318;2022-12-17T05:44:38;0.50;1.00
15217;DHT22;7711;46.634;14.318;2022-12-17T05:47:24;0.40;1.00
15217;DHT22;7711;46.634;14.318;2022-12-17T05:50:08;0.40;1.00
15217;DHT22;7711;46.634;14.318;2022-12-17T05:52:52;0.40;1.00
15217;DHT22;7711;46.634;14.318;2022-12-17T05:55:37;0.30;1.00
15217;DHT22;7711;46.634;14.318;2022-12-17T05:58:22;0.40;1.00
15217;DHT22;7711;46.634;14.318;2022-12-17T06:01:07;0.30;1.00
15217;DHT22;7711;46.634;14.318;2022-12-17T06:03:53;0.30;1.00
15217;DHT22;7711;46.634;14.318;2022-12-17T06:06:37;0.30;1.00
15217;DHT22;7711;46.634;14.318;2022-12-17T06:09:21;0.30;1.00
15217;DHT22;7711;46.634;14.318;2022-12-17T06:12:06;0.30;1.00
15217;DHT22;7711;46.634;14.318;2022-12-17T06:14:50;0.30;1.00
15217;DHT22;7711;46.634;14.318;2022-12-17T06:17:35;0.40;1.00
15217;DHT22;7711;46.634;14.318;2022-12-17T06:20:20;0.30;1.00
15217;DHT22;7711;46.634;14.318;2022-12-17T06:23:06;0.30;1.00
15217;DHT22;7711;46.634;14.318;2022-12-17T06:25:52;0.30;1.00
15217;DHT22;7711;46.634;14.318;2022-12-17T06:28:40;0.40;1.00
15217;DHT22;7711;46.634;14.318;2022-12-17T06:31:24;0.40;1.00
15217;DHT22;7711;46.634;14.318;2022-12-17T06:34:08;0.40;1.00
15217;DHT22;7711;46.634;14.318;2022-12-17T06:36:54;0.40;1.00
15217;DHT22;7711;46.634;14.318;2022-12-17T06:39:38;0.40;1.00
15217;DHT22;7711;46.634;14.318;2022-12-17T06:42:23;0.40;1.00
15217;DHT22;7711;46.634;14.318;2022-12-17T06:45:08;0.40;1.00
15217;DHT22;7711;46.634;14.318;2022-12-17T06:48:00;0.40;1.00
15217;DHT22;7711;46.634;14.318;2022-12-17T06:50:44;0.40;1.00
15217;DHT22;7711;46.634;14.318;2022-12-17T06:53:30;0.40;1.00
15217;DHT22;7711;46.634;14.318;2022-12-17T06:56:14;0.50;1.00
15217;DHT22;7711;46.634;14.318;2022-12-17T06:58:58;0.40;1.00
15217;DHT22;7711;46.634;14.318;2022-12-17T07:01:43;0.50;1.00
15217;DHT22;7711;46.634;14.318;2022-12-17T07:04:27;0.50;1.00
15217;DHT22;7711;46.634;14.318;2022-12-17T07:07:11;0.50;1.00
15217;DHT22;7711;46.634;14.318;2022-12-17T07:09:57;0.60;1.00
15217;DHT22;7711;46.634;14.318;2022-12-17T07:12:47;0.50;1.00
15217;DHT22;7711;46.634;14.318;2022-12-17T07:15:31;0.50;1.00
15217;DHT22;7711;46.634;14.318;2022-12-17T07:18:15;0.60;1.00
15217;DHT22;7711;46.634;14.318;2022-12-17T07:21:00;0.60;1.00
15217;DHT22;7711;46.634;14.318;2022-12-17T07:23:44;0.60;1.00
15217;DHT22;7711;46.634;14.318;2022-12-17T07:26:30;0.70;1.00
15217;DHT22;7711;46.634;14.318;2022-12-17T07:29:14;0.70;1.00
15217;DHT22;7711;46.634;14.318;2022-12-17T07:31:58;0.70;1.00
15217;DHT22;7711;46.634;14.318;2022-12-17T07:34:43;0.80;1.00
15217;DHT22;7711;46.634;14.318;2022-12-17T07:37:27;0.80;1.00
15217;DHT22;7711;46.634;14.318;2022-12-17T07:40:26;0.80;1.00
15217;DHT22;7711;46.634;14.318;2022-12-17T07:43:13;0.80;1.00
15217;DHT22;7711;46.634;14.318;2022-12-17T07:45:58;0.80;1.00
15217;DHT22;7711;46.634;14.318;2022-12-17T07:48:42;0.80;1.00
15217;DHT22;7711;46.634;14.318;2022-12-17T07:51:27;0.90;1.00
15217;DHT22;7711;46.634;14.318;2022-12-17T07:54:12;0.80;1.00
15217;DHT22;7711;46.634;14.318;2022-12-17T07:56:56;0.80;1.00
15217;DHT22;7711;46.634;14.318;2022-12-17T07:59:41;0.80;1.00
15217;DHT22;7711;46.634;14.318;2022-12-17T08:02:25;0.80;1.00
15217;DHT22;7711;46.634;14.318;2022-12-17T08:05:10;0.80;1.00
15217;DHT22;7711;46.634;14.318;2022-12-17T08:07:54;0.80;1.00
15217;DHT22;7711;46.634;14.318;2022-12-17T08:10:38;0.80;1.00
15217;DHT22;7711;46.634;14.318;2022-12-17T08:13:24;0.80;1.00
15217;DHT22;7711;46.634;14.318;2022-12-17T08:16:10;0.80;1.00
15217;DHT22;7711;46.634;14.318;2022-12-17T08:18:54;0.80;1.00
15217;DHT22;7711;46.634;14.318;2022-12-17T08:21:38;0.90;1.00
15217;DHT22;7711;46.634;14.318;2022-12-17T08:24:22;1.00;1.00
15217;DHT22;7711;46.634;14.318;2022-12-17T08:27:07;1.00;1.00
15217;DHT22;7711;46.634;14.318;2022-12-17T08:29:51;1.00;1.00
15217;DHT22;7711;46.634;14.318;2022-12-17T08:32:37;1.10;1.00
15217;DHT22;7711;46.634;14.318;2022-12-17T08:35:21;1.20;1.00
15217;DHT22;7711;46.634;14.318;2022-12-17T08:38:06;1.20;1.00
15217;DHT22;7711;46.634;14.318;2022-12-17T08:40:50;1.20;1.00
15217;DHT22;7711;46.634;14.318;2022-12-17T08:43:35;1.30;1.00
15217;DHT22;7711;46.634;14.318;2022-12-17T08:46:20;1.30;1.00
15217;DHT22;7711;46.634;14.318;2022-12-17T08:49:08;1.40;1.00
15217;DHT22;7711;46.634;14.318;2022-12-17T08:51:52;1.40;1.00
15217;DHT22;7711;46.634;14.318;2022-12-17T08:54:36;1.40;1.00
15217;DHT22;7711;46.634;14.318;2022-12-17T08:57:20;1.40;1.00
15217;DHT22;7711;46.634;14.318;2022-12-17T09:00:06;1.50;1.00
15217;DHT22;7711;46.634;14.318;2022-12-17T09:02:55;1.60;1.00
15217;DHT22;7711;46.634;14.318;2022-12-17T09:05:41;1.60;1.00
15217;DHT22;7711;46.634;14.318;2022-12-17T09:08:25;1.60;1.00
15217;DHT22;7711;46.634;14.318;2022-12-17T09:11:10;1.70;1.00
15217;DHT22;7711;46.634;14.318;2022-12-17T09:13:54;1.80;1.00
15217;DHT22;7711;46.634;14.318;2022-12-17T09:16:38;1.70;1.00
15217;DHT22;7711;46.634;14.318;2022-12-17T09:19:37;1.90;1.00
15217;DHT22;7711;46.634;14.318;2022-12-17T09:22:31;1.80;1.00
15217;DHT22;7711;46.634;14.318;2022-12-17T09:25:16;1.70;1.00
15217;DHT22;7711;46.634;14.318;2022-12-17T09:28:01;1.80;1.00
15217;DHT22;7711;46.634;14.318;2022-12-17T09:30:46;1.80;1.00
15217;DHT22;7711;46.634;14.318;2022-12-17T09:33:42;1.90;1.00
15217;DHT22;7711;46.634;14.318;2022-12-17T09:36:27;1.80;1.00
15217;DHT22;7711;46.634;14.318;2022-12-17T09:39:12;1.90;1.00
15217;DHT22;7711;46.634;14.318;2022-12-17T09:42:00;1.80;1.00
15217;DHT22;7711;46.634;14.318;2022-12-17T09:44:52;1.90;1.00
15217;DHT22;7711;46.634;14.318;2022-12-17T09:47:44;1.90;1.00
15217;DHT22;7711;46.634;14.318;2022-12-17T09:50:33;2.00;1.00
15217;DHT22;7711;46.634;14.318;2022-12-17T09:53:22;2.00;1.00
15217;DHT22;7711;46.634;14.318;2022-12-17T09:56:17;2.20;1.00
15217;DHT22;7711;46.634;14.318;2022-12-17T09:59:04;2.30;1.00
15217;DHT22;7711;46.634;14.318;2022-12-17T10:01:49;2.40;99.90
15217;DHT22;7711;46.634;14.318;2022-12-17T10:04:37;2.30;1.00
15217;DHT22;7711;46.634;14.318;2022-12-17T10:07:24;2.50;99.90
15217;DHT22;7711;46.634;14.318;2022-12-17T10:10:16;2.70;1.00
15217;DHT22;7711;46.634;14.318;2022-12-17T10:13:15;2.70;99.90
15217;DHT22;7711;46.634;14.318;2022-12-17T10:16:00;2.90;99.90
15217;DHT22;7711;46.634;14.318;2022-12-17T10:18:45;3.20;1.00
15217;DHT22;7711;46.634;14.318;2022-12-17T10:21:31;3.10;99.90
15217;DHT22;7711;46.634;14.318;2022-12-17T10:24:18;3.10;99.90
15217;DHT22;7711;46.634;14.318;2022-12-17T10:27:08;2.90;99.90
15217;DHT22;7711;46.634;14.318;2022-12-17T10:29:54;3.00;87.70
15217;DHT22;7711;46.634;14.318;2022-12-17T10:32:41;2.90;99.90
15217;DHT22;7711;46.634;14.318;2022-12-17T10:35:33;3.00;99.90
15217;DHT22;7711;46.634;14.318;2022-12-17T10:38:23;3.10;99.90
15217;DHT22;7711;46.634;14.318;2022-12-17T10:41:22;3.10;99.90
15217;DHT22;7711;46.634;14.318;2022-12-17T10:44:20;3.20;99.90
15217;DHT22;7711;46.634;14.318;2022-12-17T10:47:10;3.10;99.90
15217;DHT22;7711;46.634;14.318;2022-12-17T10:49:59;3.00;99.90
15217;DHT22;7711;46.634;14.318;2022-12-17T10:52:47;2.90;99.90
15217;DHT22;7711;46.634;14.318;2022-12-17T10:55:33;2.80;99.90
15217;DHT22;7711;46.634;14.318;2022-12-17T10:58:20;2.90;99.90
15217;DHT22;7711;46.634;14.318;2022-12-17T11:01:06;2.80;42.50
15217;DHT22;7711;46.634;14.318;2022-12-17T11:03:55;2.80;99.90
15217;DHT22;7711;46.634;14.318;2022-12-17T11:06:42;2.80;99.90
15217;DHT22;7711;46.634;14.318;2022-12-17T11:09:38;3.00;99.90
15217;DHT22;7711;46.634;14.318;2022-12-17T11:12:28;3.00;6.00
15217;DHT22;7711;46.634;14.318;2022-12-17T11:15:18;2.80;99.90
15217;DHT22;7711;46.634;14.318;2022-12-17T11:18:23;2.60;1.00
15217;DHT22;7711;46.634;14.318;2022-12-17T11:21:12;2.40;1.00
15217;DHT22;7711;46.634;14.318;2022-12-17T11:23:59;2.30;1.00
15217;DHT22;7711;46.634;14.318;2022-12-17T11:26:50;2.40;1.00
15217;DHT22;7711;46.634;14.318;2022-12-17T11:29:39;2.20;1.00
15217;DHT22;7711;46.634;14.318;2022-12-17T11:32:46;2.30;99.90
15217;DHT22;7711;46.634;14.318;2022-12-17T11:35:40;2.30;1.00
15217;DHT22;7711;46.634;14.318;2022-12-17T11:38:36;2.40;80.60
15217;DHT22;7711;46.634;14.318;2022-12-17T11:41:30;2.30;1.00
15217;DHT22;7711;46.634;14.318;2022-12-17T11:44:34;2.40;1.00
15217;DHT22;7711;46.634;14.318;2022-12-17T11:47:28;2.50;1.00
15217;DHT22;7711;46.634;14.318;2022-12-17T11:50:36;2.40;99.90
15217;DHT22;7711;46.634;14.318;2022-12-17T11:53:43;2.50;99.90
15217;DHT22;7711;46.634;14.318;2022-12-17T11:56:37;2.60;99.90
15217;DHT22;7711;46.634;14.318;2022-12-17T11:59:26;2.70;99.90
15217;DHT22;7711;46.634;14.318;2022-12-17T12:02:27;2.70;99.40
15217;DHT22;7711;46.634;14.318;2022-12-17T12:05:21;2.80;28.00
15217;DHT22;7711;46.634;14.318;2022-12-17T12:08:18;2.90;99.60
15217;DHT22;7711;46.634;14.318;2022-12-17T12:11:15;3.00;90.30
15217;DHT22;7711;46.634;14.318;2022-12-17T12:14:10;3.10;1.00
15217;DHT22;7711;46.634;14.318;2022-12-17T12:17:14;3.10;1.00
15217;DHT22;7711;46.634;14.318;2022-12-17T12:20:09;3.20;1.00
15217;DHT22;7711;46.634;14.318;2022-12-17T12:23:02;3.20;1.00
15217;DHT22;7711;46.634;14.318;2022-12-17T12:26:00;3.20;1.00
15217;DHT22;7711;46.634;14.318;2022-12-17T12:28:58;3.30;1.00
15217;DHT22;7711;46.634;14.318;2022-12-17T12:31:50;3.10;1.00
15217;DHT22;7711;46.634;14.318;2022-12-17T12:34:39;3.30;1.00
15217;DHT22;7711;46.634;14.318;2022-12-17T12:37:25;3.20;1.00
15217;DHT22;7711;46.634;14.318;2022-12-17T12:40:15;3.40;1.00
15217;DHT22;7711;46.634;14.318;2022-12-17T12:43:13;3.50;1.00
15217;DHT22;7711;46.634;14.318;2022-12-17T12:46:03;3.50;1.00
15217;DHT22;7711;46.634;14.318;2022-12-17T12:48:53;3.60;1.00
15217;DHT22;7711;46.634;14.318;2022-12-17T12:51:39;3.70;1.00
15217;DHT22;7711;46.634;14.318;2022-12-17T12:54:27;3.70;1.00
15217;DHT22;7711;46.634;14.318;2022-12-17T12:57:30;3.70;1.00
15217;DHT22;7711;46.634;14.318;2022-12-17T13:00:27;3.70;99.90
15217;DHT22;7711;46.634;14.318;2022-12-17T13:03:32;3.70;99.90
15217;DHT22;7711;46.634;14.318;2022-12-17T13:06:39;3.70;99.90
15217;DHT22;7711;46.634;14.318;2022-12-17T13:09:22;3.50;99.90
15217;DHT22;7711;46.634;14.318;2022-12-17T13:12:09;3.50;99.90
15217;DHT22;7711;46.634;14.318;2022-12-17T13:14:46;3.40;99.90
15217;DHT22;7711;46.634;14.318;2022-12-17T13:17:27;3.40;99.90
15217;DHT22;7711;46.634;14.318;2022-12-17T13:20:21;3.20;99.90
15217;DHT22;7711;46.634;14.318;2022-12-17T13:22:50;3.00;1.00
15217;DHT22;7711;46.634;14.318;2022-12-17T13:25:21;2.80;1.00
15217;DHT22;7711;46.634;14.318;2022-12-17T13:27:49;2.80;99.90
15217;DHT22;7711;46.634;14.318;2022-12-17T13:30:28;2.70;99.90
15217;DHT22;7711;46.634;14.318;2022-12-17T13:33:16;2.70;1.00
15217;DHT22;7711;46.634;14.318;2022-12-17T13:35:57;2.60;1.00
15217;DHT22;7711;46.634;14.318;2022-12-17T13:38:35;2.70;99.90
15217;DHT22;7711;46.634;14.318;2022-12-17T13:41:11;2.70;99.90
15217;DHT22;7711;46.634;14.318;2022-12-17T13:43:43;2.80;99.90
15217;DHT22;7711;46.634;14.318;2022-12-17T13:46:21;2.80;1.00
15217;DHT22;7711;46.634;14.318;2022-12-17T13:48:52;2.80;11.40
15217;DHT22;7711;46.634;14.318;2022-12-17T13:51:24;2.80;1.00
15217;DHT22;7711;46.634;14.318;2022-12-17T13:53:56;2.80;1.00
15217;DHT22;7711;46.634;14.318;2022-12-17T13:56:26;2.70;1.00
15217;DHT22;7711;46.634;14.318;2022-12-17T13:58:55;2.50;1.00
15217;DHT22;7711;46.634;14.318;2022-12-17T14:01:23;2.50;1.00
15217;DHT22;7711;46.634;14.318;2022-12-17T14:03:53;2.40;1.00
15217;DHT22;7711;46.634;14.318;2022-12-17T14:06:23;2.40;1.00
15217;DHT22;7711;46.634;14.318;2022-12-17T14:08:54;2.40;99.90
15217;DHT22;7711;46.634;14.318;2022-12-17T14:11:22;2.40;99.90
15217;DHT22;7711;46.634;14.318;2022-12-17T14:14:11;2.40;99.90
15217;DHT22;7711;46.634;14.318;2022-12-17T14:16:43;2.30;1.00
15217;DHT22;7711;46.634;14.318;2022-12-17T14:19:11;2.30;1.00
15217;DHT22;7711;46.634;14.318;2022-12-17T14:21:39;2.30;1.00
15217;DHT22;7711;46.634;14.318;2022-12-17T14:24:10;2.20;1.00
15217;DHT22;7711;46.634;14.318;2022-12-17T14:26:47;2.20;1.00
15217;DHT22;7711;46.634;14.318;2022-12-17T14:29:21;2.20;1.00
15217;DHT22;7711;46.634;14.318;2022-12-17T14:31:52;2.20;99.90
15217;DHT22;7711;46.634;14.318;2022-12-17T14:34:19;2.10;1.00
15217;DHT22;7711;46.634;14.318;2022-12-17T14:36:53;2.10;1.00
15217;DHT22;7711;46.634;14.318;2022-12-17T14:39:24;2.00;99.90
15217;DHT22;7711;46.634;14.318;2022-12-17T14:41:52;2.00;99.90
15217;DHT22;7711;46.634;14.318;2022-12-17T14:44:46;1.90;1.00
15217;DHT22;7711;46.634;14.318;2022-12-17T14:47:18;1.90;21.60
15217;DHT22;7711;46.634;14.318;2022-12-17T14:49:55;1.80;99.90
15217;DHT22;7711;46.634;14.318;2022-12-17T14:52:32;1.80;99.90
15217;DHT22;7711;46.634;14.318;2022-12-17T14:55:20;1.70;1.00
15217;DHT22;7711;46.634;14.318;2022-12-17T14:57:52;1.60;1.00
15217;DHT22;7711;46.634;14.318;2022-12-17T15:00:19;1.60;1.00
15217;DHT22;7711;46.634;14.318;2022-12-17T15:02:50;1.60;1.00
15217;DHT22;7711;46.634;14.318;2022-12-17T15:05:20;1.50;1.00
15217;DHT22;7711;46.634;14.318;2022-12-17T15:07:49;1.50;1.00
15217;DHT22;7711;46.634;14.318;2022-12-17T15:10:19;1.50;1.00
15217;DHT22;7711;46.634;14.318;2022-12-17T15:12:46;1.40;1.00
15217;DHT22;7711;46.634;14.318;2022-12-17T15:15:16;1.40;1.00
15217;DHT22;7711;46.634;14.318;2022-12-17T15:17:46;1.40;1.00
15217;DHT22;7711;46.634;14.318;2022-12-17T15:20:16;1.40;1.00
15217;DHT22;7711;46.634;14.318;2022-12-17T15:22:43;1.30;1.00
15217;DHT22;7711;46.634;14.318;2022-12-17T15:25:13;1.30;1.00
15217;DHT22;7711;46.634;14.318;2022-12-17T15:27:41;1.30;1.00
15217;DHT22;7711;46.634;14.318;2022-12-17T15:30:12;1.20;1.00
15217;DHT22;7711;46.634;14.318;2022-12-17T15:32:42;1.20;1.00
15217;DHT22;7711;46.634;14.318;2022-12-17T15:35:11;1.20;1.00
15217;DHT22;7711;46.634;14.318;2022-12-17T15:37:39;1.20;1.00
15217;DHT22;7711;46.634;14.318;2022-12-17T15:40:07;1.10;1.00
15217;DHT22;7711;46.634;14.318;2022-12-17T15:42:38;1.10;1.00
15217;DHT22;7711;46.634;14.318;2022-12-17T15:45:24;1.10;1.00
15217;DHT22;7711;46.634;14.318;2022-12-17T15:47:51;1.00;1.00
15217;DHT22;7711;46.634;14.318;2022-12-17T15:50:18;0.90;1.00
15217;DHT22;7711;46.634;14.318;2022-12-17T15:52:47;0.90;1.00
15217;DHT22;7711;46.634;14.318;2022-12-17T15:55:15;0.90;1.00
15217;DHT22;7711;46.634;14.318;2022-12-17T15:57:44;0.90;1.00
15217;DHT22;7711;46.634;14.318;2022-12-17T16:00:15;0.90;1.00
15217;DHT22;7711;46.634;14.318;2022-12-17T16:02:43;0.80;1.00
15217;DHT22;7711;46.634;14.318;2022-12-17T16:05:10;0.80;1.00
15217;DHT22;7711;46.634;14.318;2022-12-17T16:07:42;0.80;1.00
15217;DHT22;7711;46.634;14.318;2022-12-17T16:10:10;0.80;1.00
15217;DHT22;7711;46.634;14.318;2022-12-17T16:12:38;0.80;1.00
15217;DHT22;7711;46.634;14.318;2022-12-17T16:15:09;0.80;1.00
15217;DHT22;7711;46.634;14.318;2022-12-17T16:17:37;0.70;1.00
15217;DHT22;7711;46.634;14.318;2022-12-17T16:20:05;0.70;1.00
15217;DHT22;7711;46.634;14.318;2022-12-17T16:22:33;0.60;1.00
15217;DHT22;7711;46.634;14.318;2022-12-17T16:25:01;0.60;1.00
15217;DHT22;7711;46.634;14.318;2022-12-17T16:27:30;0.60;1.00
15217;DHT22;7711;46.634;14.318;2022-12-17T16:29:58;0.50;1.00
15217;DHT22;7711;46.634;14.318;2022-12-17T16:32:29;0.50;1.00
15217;DHT22;7711;46.634;14.318;2022-12-17T16:34:58;0.50;1.00
15217;DHT22;7711;46.634;14.318;2022-12-17T16:37:25;0.40;1.00
15217;DHT22;7711;46.634;14.318;2022-12-17T16:39:56;0.40;1.00
15217;DHT22;7711;46.634;14.318;2022-12-17T16:42:24;0.40;1.00
15217;DHT22;7711;46.634;14.318;2022-12-17T16:44:53;0.30;1.00
15217;DHT22;7711;46.634;14.318;2022-12-17T16:47:23;0.30;1.00
15217;DHT22;7711;46.634;14.318;2022-12-17T16:49:52;0.30;1.00
15217;DHT22;7711;46.634;14.318;2022-12-17T16:52:20;0.30;1.00
15217;DHT22;7711;46.634;14.318;2022-12-17T16:54:49;0.30;1.00
15217;DHT22;7711;46.634;14.318;2022-12-17T16:57:19;0.20;1.00
15217;DHT22;7711;46.634;14.318;2022-12-17T16:59:47;0.10;1.00
15217;DHT22;7711;46.634;14.318;2022-12-17T17:02:16;0.20;1.00
15217;DHT22;7711;46.634;14.318;2022-12-17T17:04:43;0.10;1.00
15217;DHT22;7711;46.634;14.318;2022-12-17T17:07:12;0.10;1.00
15217;DHT22;7711;46.634;14.318;2022-12-17T17:09:41;0.10;1.00
15217;DHT22;7711;46.634;14.318;2022-12-17T17:12:08;0.00;1.00
15217;DHT22;7711;46.634;14.318;2022-12-17T17:14:38;0.00;1.00
15217;DHT22;7711;46.634;14.318;2022-12-17T17:17:08;0.00;1.00
15217;DHT22;7711;46.634;14.318;2022-12-17T17:19:35;0.00;1.00
15217;DHT22;7711;46.634;14.318;2022-12-17T17:22:02;-0.10;1.00
15217;DHT22;7711;46.634;14.318;2022-12-17T17:24:33;-0.10;1.00
15217;DHT22;7711;46.634;14.318;2022-12-17T17:27:02;-0.20;1.00
15217;DHT22;7711;46.634;14.318;2022-12-17T17:29:31;-0.20;1.00
15217;DHT22;7711;46.634;14.318;2022-12-17T17:32:02;-0.30;1.00
15217;DHT22;7711;46.634;14.318;2022-12-17T17:34:31;-0.30;1.00
15217;DHT22;7711;46.634;14.318;2022-12-17T17:36:58;-0.30;1.00
15217;DHT22;7711;46.634;14.318;2022-12-17T17:39:25;-0.30;1.00
15217;DHT22;7711;46.634;14.318;2022-12-17T17:41:54;-0.40;1.00